sensor_id;sensor_type;location;lat;lon;timestamp;pressure;altitude;pressure_sealevel;temperature;humidity
3844;BME280;1937;51.444;6.484;2023-02-18T00:01:41;68367.28;;;11.93;97.50
3844;BME280;1937;51.444;6.484;2023-02-18T00:04:11;68402.28;;;12.03;97.25
3844;BME280;1937;51.444;6.484;2023-02-18T00:06:39;68397.84;;;12.08;96.48
3844;BME280;1937;51.444;6.484;2023-02-18T00:09:07;68388.28;;;12.13;96.56
3844;BME280;1937;51.444;6.484;2023-02-18T00:11:36;68377.19;;;12.08;96.40
3844;BME280;1937;51.444;6.484;2023-02-18T00:14:07;68389.38;;;12.03;96.37
3844;BME280;1937;51.444;6.484;2023-02-18T00:16:40;68389.66;;;12.12;96.38
3844;BME280;1937;51.444;6.484;2023-02-18T00:19:10;68399.28;;;12.07;96.92
3844;BME280;1937;51.444;6.484;2023-02-18T00:21:39;68390.22;;;12.01;97.52
3844;BME280;1937;51.444;6.484;2023-02-18T00:24:08;68402.88;;;12.03;96.67
3844;BME280;1937;51.444;6.484;2023-02-18T00:26:39;68397.00;;;11.98;96.50
3844;BME280;1937;51.444;6.484;2023-02-18T00:29:08;68440.78;;;12.05;97.24
3844;BME280;1937;51.444;6.484;2023-02-18T00:31:39;68377.34;;;11.83;98.13
3844;BME280;1937;51.444;6.484;2023-02-18T00:34:09;68451.63;;;11.94;97.96
3844;BME280;1937;51.444;6.484;2023-02-18T00:36:39;68400.91;;;11.86;97.97
3844;BME280;1937;51.444;6.484;2023-02-18T00:39:10;68455.91;;;11.84;98.72
3844;BME280;1937;51.444;6.484;2023-02-18T00:41:39;68453.63;;;11.94;97.93
3844;BME280;1937;51.444;6.484;2023-02-18T00:44:08;68425.19;;;11.82;98.55
3844;BME280;1937;51.444;6.484;2023-02-18T00:46:37;68422.53;;;11.89;97.81
3844;BME280;1937;51.444;6.484;2023-02-18T00:49:07;68442.34;;;11.90;98.30
3844;BME280;1937;51.444;6.484;2023-02-18T00:51:37;68434.84;;;11.88;98.35
3844;BME280;1937;51.444;6.484;2023-02-18T00:54:05;68479.03;;;12.09;97.67
3844;BME280;1937;51.444;6.484;2023-02-18T00:56:34;68431.00;;;11.94;97.80
3844;BME280;1937;51.444;6.484;2023-02-18T00:59:02;68442.63;;;12.00;97.86
3844;BME280;1937;51.444;6.484;2023-02-18T01:01:31;68423.59;;;11.97;97.55
3844;BME280;1937;51.444;6.484;2023-02-18T01:04:01;68441.84;;;11.83;99.23
3844;BME280;1937;51.444;6.484;2023-02-18T01:06:31;68421.88;;;11.77;99.34
3844;BME280;1937;51.444;6.484;2023-02-18T01:08:59;68461.72;;;11.78;99.55
3844;BME280;1937;51.444;6.484;2023-02-18T01:11:27;68464.59;;;11.87;99.35
3844;BME280;1937;51.444;6.484;2023-02-18T01:13:55;68480.44;;;11.72;98.93
3844;BME280;1937;51.444;6.484;2023-02-18T01:16:24;68441.91;;;11.77;99.54
3844;BME280;1937;51.444;6.484;2023-02-18T01:18:52;68489.38;;;11.73;100.00
3844;BME280;1937;51.444;6.484;2023-02-18T01:21:21;68518.34;;;11.74;100.00
3844;BME280;1937;51.444;6.484;2023-02-18T01:23:51;68524.00;;;11.81;100.00
3844;BME280;1937;51.444;6.484;2023-02-18T01:26:19;68540.53;;;11.95;98.92
3844;BME280;1937;51.444;6.484;2023-02-18T01:28:48;68468.13;;;11.73;100.00
3844;BME280;1937;51.444;6.484;2023-02-18T01:31:17;68545.25;;;11.81;100.00
3844;BME280;1937;51.444;6.484;2023-02-18T01:33:45;68525.91;;;11.69;100.00
3844;BME280;1937;51.444;6.484;2023-02-18T01:36:13;68563.78;;;11.71;100.00
3844;BME280;1937;51.444;6.484;2023-02-18T01:38:41;68566.69;;;11.80;99.44
3844;BME280;1937;51.444;6.484;2023-02-18T01:41:11;68509.00;;;11.77;99.78
3844;BME280;1937;51.444;6.484;2023-02-18T01:43:41;68518.97;;;11.68;100.00
3844;BME280;1937;51.444;6.484;2023-02-18T01:46:19;68499.66;;;11.56;100.00
3844;BME280;1937;51.444;6.484;2023-02-18T01:48:49;68516.09;;;11.59;100.00
3844;BME280;1937;51.444;6.484;2023-02-18T01:51:21;68580.63;;;11.76;100.00
3844;BME280;1937;51.444;6.484;2023-02-18T01:53:55;68563.16;;;11.77;100.00
3844;BME280;1937;51.444;6.484;2023-02-18T01:56:31;68545.91;;;11.75;100.00
3844;BME280;1937;51.444;6.484;2023-02-18T01:59:04;68576.34;;;11.86;99.95
3844;BME280;1937;51.444;6.484;2023-02-18T02:01:34;68521.50;;;11.74;100.00
3844;BME280;1937;51.444;6.484;2023-02-18T02:04:03;68544.66;;;11.57;100.00
3844;BME280;1937;51.444;6.484;2023-02-18T02:06:32;68531.56;;;11.59;100.00
3844;BME280;1937;51.444;6.484;2023-02-18T02:09:03;68542.91;;;11.55;100.00
3844;BME280;1937;51.444;6.484;2023-02-18T02:11:44;68581.69;;;11.66;100.00
3844;BME280;1937;51.444;6.484;2023-02-18T02:14:21;68592.88;;;11.58;100.00
3844;BME280;1937;51.444;6.484;2023-02-18T02:16:59;68602.06;;;11.50;100.00
3844;BME280;1937;51.444;6.484;2023-02-18T02:25:46;68648.69;;;11.48;100.00
3844;BME280;1937;51.444;6.484;2023-02-18T02:28:49;68634.44;;;11.43;100.00
3844;BME280;1937;51.444;6.484;2023-02-18T02:34:36;68688.97;;;11.45;100.00
3844;BME280;1937;51.444;6.484;2023-02-18T02:37:10;68729.44;;;11.47;100.00
3844;BME280;1937;51.444;6.484;2023-02-18T02:39:44;68710.06;;;11.35;100.00
3844;BME280;1937;51.444;6.484;2023-02-18T02:42:23;68754.25;;;11.37;100.00
3844;BME280;1937;51.444;6.484;2023-02-18T02:44:59;68779.28;;;11.32;100.00
3844;BME280;1937;51.444;6.484;2023-02-18T02:47:35;68784.25;;;11.28;100.00
3844;BME280;1937;51.444;6.484;2023-02-18T02:50:12;68794.00;;;11.21;100.00
3844;BME280;1937;51.444;6.484;2023-02-18T02:52:46;68825.34;;;11.23;100.00
3844;BME280;1937;51.444;6.484;2023-02-18T02:55:17;68846.59;;;11.04;100.00
3844;BME280;1937;51.444;6.484;2023-02-18T02:57:51;68907.03;;;11.18;100.00
3844;BME280;1937;51.444;6.484;2023-02-18T03:00:23;68929.25;;;11.15;100.00
3844;BME280;1937;51.444;6.484;2023-02-18T03:03:05;68976.03;;;11.18;100.00
3844;BME280;1937;51.444;6.484;2023-02-18T03:05:48;69016.09;;;11.17;100.00
3844;BME280;1937;51.444;6.484;2023-02-18T03:08:31;69009.13;;;11.08;100.00
3844;BME280;1937;51.444;6.484;2023-02-18T03:11:07;69040.47;;;11.11;100.00
3844;BME280;1937;51.444;6.484;2023-02-18T03:14:01;69113.63;;;11.14;100.00
3844;BME280;1937;51.444;6.484;2023-02-18T03:16:38;69102.72;;;11.07;100.00
3844;BME280;1937;51.444;6.484;2023-02-18T03:19:18;69083.50;;;10.99;100.00
3844;BME280;1937;51.444;6.484;2023-02-18T03:21:54;69188.75;;;11.10;100.00
3844;BME280;1937;51.444;6.484;2023-02-18T03:24:27;69152.88;;;11.01;100.00
3844;BME280;1937;51.444;6.484;2023-02-18T03:27:01;69204.41;;;11.15;100.00
3844;BME280;1937;51.444;6.484;2023-02-18T03:29:31;69224.84;;;11.10;100.00
3844;BME280;1937;51.444;6.484;2023-02-18T03:32:04;69228.19;;;11.02;100.00
3844;BME280;1937;51.444;6.484;2023-02-18T03:34:37;69229.41;;;11.09;100.00
3844;BME280;1937;51.444;6.484;2023-02-18T03:37:10;69255.16;;;11.09;100.00
3844;BME280;1937;51.444;6.484;2023-02-18T03:39:43;69280.16;;;11.11;100.00
3844;BME280;1937;51.444;6.484;2023-02-18T03:42:14;69252.78;;;11.07;100.00
3844;BME280;1937;51.444;6.484;2023-02-18T03:44:43;69280.09;;;10.98;100.00
3844;BME280;1937;51.444;6.484;2023-02-18T03:47:12;69299.56;;;11.10;100.00
3844;BME280;1937;51.444;6.484;2023-02-18T03:49:41;69339.66;;;11.16;100.00
3844;BME280;1937;51.444;6.484;2023-02-18T03:52:10;69291.28;;;11.16;100.00
3844;BME280;1937;51.444;6.484;2023-02-18T03:54:39;69290.06;;;11.15;100.00
3844;BME280;1937;51.444;6.484;2023-02-18T03:57:08;69278.38;;;11.16;100.00
3844;BME280;1937;51.444;6.484;2023-02-18T03:59:36;69277.78;;;11.16;100.00
3844;BME280;1937;51.444;6.484;2023-02-18T04:02:05;69250.41;;;11.05;100.00
3844;BME280;1937;51.444;6.484;2023-02-18T04:04:33;69284.75;;;11.17;100.00
3844;BME280;1937;51.444;6.484;2023-02-18T04:07:01;69266.28;;;11.15;100.00
3844;BME280;1937;51.444;6.484;2023-02-18T04:09:31;69316.41;;;11.09;100.00
3844;BME280;1937;51.444;6.484;2023-02-18T04:11:59;69353.13;;;11.16;100.00
3844;BME280;1937;51.444;6.484;2023-02-18T04:14:27;69321.22;;;11.13;100.00
3844;BME280;1937;51.444;6.484;2023-02-18T04:16:56;69344.59;;;11.11;100.00
3844;BME280;1937;51.444;6.484;2023-02-18T04:19:24;69331.53;;;11.13;100.00
3844;BME280;1937;51.444;6.484;2023-02-18T04:21:52;69346.56;;;11.11;100.00
3844;BME280;1937;51.444;6.484;2023-02-18T04:24:20;69358.75;;;10.90;100.00
3844;BME280;1937;51.444;6.484;2023-02-18T04:26:50;69460.91;;;11.00;100.00
3844;BME280;1937;51.444;6.484;2023-02-18T04:29:18;69442.22;;;10.93;100.00
3844;BME280;1937;51.444;6.484;2023-02-18T04:31:46;69496.38;;;11.00;100.00
3844;BME280;1937;51.444;6.484;2023-02-18T04:34:15;69456.88;;;10.88;100.00
3844;BME280;1937;51.444;6.484;2023-02-18T04:36:43;69568.47;;;11.15;100.00
3844;BME280;1937;51.444;6.484;2023-02-18T04:39:13;69478.69;;;10.89;100.00
3844;BME280;1937;51.444;6.484;2023-02-18T04:41:42;69534.22;;;10.95;100.00
3844;BME280;1937;51.444;6.484;2023-02-18T04:44:12;69520.78;;;10.79;100.00
3844;BME280;1937;51.444;6.484;2023-02-18T04:46:40;69590.41;;;10.86;100.00
3844;BME280;1937;51.444;6.484;2023-02-18T04:49:08;69615.59;;;10.85;100.00
3844;BME280;1937;51.444;6.484;2023-02-18T04:51:36;69553.28;;;10.76;100.00
3844;BME280;1937;51.444;6.484;2023-02-18T04:54:06;69583.75;;;10.74;100.00
3844;BME280;1937;51.444;6.484;2023-02-18T04:56:34;69601.19;;;10.73;100.00
3844;BME280;1937;51.444;6.484;2023-02-18T04:59:02;69673.81;;;10.82;100.00
3844;BME280;1937;51.444;6.484;2023-02-18T05:01:32;69735.47;;;10.84;100.00
3844;BME280;1937;51.444;6.484;2023-02-18T05:04:00;69738.84;;;10.83;100.00
3844;BME280;1937;51.444;6.484;2023-02-18T05:06:28;69731.31;;;10.65;100.00
3844;BME280;1937;51.444;6.484;2023-02-18T05:08:57;69764.19;;;10.65;100.00
3844;BME280;1937;51.444;6.484;2023-02-18T05:11:25;69767.28;;;10.59;100.00
3844;BME280;1937;51.444;6.484;2023-02-18T05:13:53;69882.59;;;10.74;100.00
3844;BME280;1937;51.444;6.484;2023-02-18T05:16:22;69893.16;;;10.78;100.00
3844;BME280;1937;51.444;6.484;2023-02-18T05:18:51;69886.03;;;10.79;100.00
3844;BME280;1937;51.444;6.484;2023-02-18T05:21:19;69874.09;;;10.75;100.00
3844;BME280;1937;51.444;6.484;2023-02-18T05:23:48;69881.66;;;10.77;100.00
3844;BME280;1937;51.444;6.484;2023-02-18T05:26:16;69831.94;;;10.63;100.00
3844;BME280;1937;51.444;6.484;2023-02-18T05:28:44;69917.63;;;10.71;100.00
3844;BME280;1937;51.444;6.484;2023-02-18T05:31:15;69917.13;;;10.77;100.00
3844;BME280;1937;51.444;6.484;2023-02-18T05:33:43;69892.41;;;10.80;100.00
3844;BME280;1937;51.444;6.484;2023-02-18T05:36:12;69861.56;;;10.71;100.00
3844;BME280;1937;51.444;6.484;2023-02-18T05:38:41;69943.50;;;10.77;100.00
3844;BME280;1937;51.444;6.484;2023-02-18T05:41:10;69915.31;;;10.75;100.00
3844;BME280;1937;51.444;6.484;2023-02-18T05:43:38;69877.09;;;10.62;100.00
3844;BME280;1937;51.444;6.484;2023-02-18T05:46:20;69940.56;;;10.66;100.00
3844;BME280;1937;51.444;6.484;2023-02-18T05:48:49;69906.53;;;10.57;100.00
3844;BME280;1937;51.444;6.484;2023-02-18T05:51:19;69988.28;;;10.65;100.00
3844;BME280;1937;51.444;6.484;2023-02-18T05:53:48;70014.00;;;10.74;100.00
3844;BME280;1937;51.444;6.484;2023-02-18T05:56:16;69975.41;;;10.65;100.00
3844;BME280;1937;51.444;6.484;2023-02-18T05:58:45;69918.16;;;10.64;100.00
3844;BME280;1937;51.444;6.484;2023-02-18T06:01:13;69969.72;;;10.56;100.00
3844;BME280;1937;51.444;6.484;2023-02-18T06:03:42;69955.91;;;10.59;100.00
3844;BME280;1937;51.444;6.484;2023-02-18T06:06:10;70044.97;;;10.65;100.00
3844;BME280;1937;51.444;6.484;2023-02-18T06:08:39;69983.56;;;10.67;100.00
3844;BME280;1937;51.444;6.484;2023-02-18T06:11:08;69981.59;;;10.68;100.00
3844;BME280;1937;51.444;6.484;2023-02-18T06:13:36;69970.53;;;10.70;100.00
3844;BME280;1937;51.444;6.484;2023-02-18T06:16:05;69985.13;;;10.64;100.00
3844;BME280;1937;51.444;6.484;2023-02-18T06:18:33;69998.59;;;10.65;100.00
3844;BME280;1937;51.444;6.484;2023-02-18T06:21:02;69926.38;;;10.58;100.00
3844;BME280;1937;51.444;6.484;2023-02-18T06:23:31;70003.47;;;10.60;100.00
3844;BME280;1937;51.444;6.484;2023-02-18T06:26:00;70039.38;;;10.62;100.00
3844;BME280;1937;51.444;6.484;2023-02-18T06:28:29;70046.28;;;10.73;100.00
3844;BME280;1937;51.444;6.484;2023-02-18T06:30:57;69976.19;;;10.63;100.00
3844;BME280;1937;51.444;6.484;2023-02-18T06:33:26;70024.19;;;10.67;100.00
3844;BME280;1937;51.444;6.484;2023-02-18T06:35:56;69960.78;;;10.55;100.00
3844;BME280;1937;51.444;6.484;2023-02-18T06:38:25;70030.59;;;10.59;100.00
3844;BME280;1937;51.444;6.484;2023-02-18T06:40:54;70054.81;;;10.62;100.00
3844;BME280;1937;51.444;6.484;2023-02-18T06:43:23;70005.16;;;10.55;100.00
3844;BME280;1937;51.444;6.484;2023-02-18T06:45:51;70049.28;;;10.51;100.00
3844;BME280;1937;51.444;6.484;2023-02-18T06:48:20;70084.69;;;10.59;100.00
3844;BME280;1937;51.444;6.484;2023-02-18T06:50:49;70057.00;;;10.51;100.00
3844;BME280;1937;51.444;6.484;2023-02-18T06:53:18;70090.97;;;10.45;100.00
3844;BME280;1937;51.444;6.484;2023-02-18T06:55:46;70061.00;;;10.42;100.00
3844;BME280;1937;51.444;6.484;2023-02-18T06:58:15;70155.81;;;10.48;100.00
3844;BME280;1937;51.444;6.484;2023-02-18T07:00:45;70022.00;;;10.31;100.00
3844;BME280;1937;51.444;6.484;2023-02-18T07:03:16;70153.41;;;10.37;100.00
3844;BME280;1937;51.444;6.484;2023-02-18T07:05:44;70238.84;;;10.40;100.00
3844;BME280;1937;51.444;6.484;2023-02-18T07:08:14;70256.72;;;10.42;100.00
3844;BME280;1937;51.444;6.484;2023-02-18T07:10:42;70282.47;;;10.42;100.00
3844;BME280;1937;51.444;6.484;2023-02-18T07:13:13;70266.41;;;10.41;100.00
3844;BME280;1937;51.444;6.484;2023-02-18T07:15:41;70316.41;;;10.36;100.00
3844;BME280;1937;51.444;6.484;2023-02-18T07:18:12;70367.59;;;10.48;100.00
3844;BME280;1937;51.444;6.484;2023-02-18T07:20:41;70327.59;;;10.41;100.00
3844;BME280;1937;51.444;6.484;2023-02-18T07:23:09;70322.44;;;10.49;100.00
3844;BME280;1937;51.444;6.484;2023-02-18T07:25:39;70276.97;;;10.54;100.00
3844;BME280;1937;51.444;6.484;2023-02-18T07:28:08;70208.22;;;10.44;100.00
3844;BME280;1937;51.444;6.484;2023-02-18T07:30:37;70119.44;;;10.43;100.00
3844;BME280;1937;51.444;6.484;2023-02-18T07:33:05;70032.78;;;10.48;100.00
3844;BME280;1937;51.444;6.484;2023-02-18T07:35:35;70016.84;;;10.54;100.00
3844;BME280;1937;51.444;6.484;2023-02-18T07:38:03;69914.59;;;10.53;100.00
3844;BME280;1937;51.444;6.484;2023-02-18T07:40:32;69885.47;;;10.54;100.00
3844;BME280;1937;51.444;6.484;2023-02-18T07:43:00;69817.50;;;10.66;100.00
3844;BME280;1937;51.444;6.484;2023-02-18T07:45:29;69755.34;;;10.71;100.00
3844;BME280;1937;51.444;6.484;2023-02-18T07:47:57;69710.06;;;10.80;100.00
3844;BME280;1937;51.444;6.484;2023-02-18T07:50:25;69605.19;;;10.57;100.00
3844;BME280;1937;51.444;6.484;2023-02-18T07:52:55;69651.31;;;10.52;100.00
3844;BME280;1937;51.444;6.484;2023-02-18T07:55:25;69679.81;;;10.50;100.00
3844;BME280;1937;51.444;6.484;2023-02-18T07:58:13;69733.81;;;10.44;100.00
3844;BME280;1937;51.444;6.484;2023-02-18T08:00:42;69653.97;;;10.44;100.00
3844;BME280;1937;51.444;6.484;2023-02-18T08:03:10;69682.66;;;10.40;100.00
3844;BME280;1937;51.444;6.484;2023-02-18T08:05:40;69634.16;;;10.42;100.00
3844;BME280;1937;51.444;6.484;2023-02-18T08:08:14;69541.19;;;10.16;100.00
3844;BME280;1937;51.444;6.484;2023-02-18T08:10:45;69656.75;;;10.42;100.00
3844;BME280;1937;51.444;6.484;2023-02-18T08:13:13;69546.84;;;10.25;100.00
3844;BME280;1937;51.444;6.484;2023-02-18T08:15:42;69600.59;;;10.51;100.00
3844;BME280;1937;51.444;6.484;2023-02-18T08:18:16;69585.03;;;10.59;100.00
3844;BME280;1937;51.444;6.484;2023-02-18T08:20:45;69435.06;;;10.37;100.00
3844;BME280;1937;51.444;6.484;2023-02-18T08:23:17;69446.44;;;10.25;100.00
3844;BME280;1937;51.444;6.484;2023-02-18T08:25:46;69451.78;;;10.23;100.00
3844;BME280;1937;51.444;6.484;2023-02-18T08:28:16;69497.94;;;10.25;100.00
3844;BME280;1937;51.444;6.484;2023-02-18T08:30:46;69467.59;;;10.19;100.00
3844;BME280;1937;51.444;6.484;2023-02-18T08:33:14;69441.88;;;10.19;100.00
3844;BME280;1937;51.444;6.484;2023-02-18T08:35:43;69374.16;;;10.20;100.00
3844;BME280;1937;51.444;6.484;2023-02-18T08:38:11;69291.72;;;10.14;100.00
3844;BME280;1937;51.444;6.484;2023-02-18T08:40:42;69256.91;;;10.15;100.00
3844;BME280;1937;51.444;6.484;2023-02-18T08:43:11;69183.66;;;10.14;100.00
3844;BME280;1937;51.444;6.484;2023-02-18T08:45:41;69134.00;;;10.15;100.00
3844;BME280;1937;51.444;6.484;2023-02-18T08:48:10;69074.25;;;10.21;100.00
3844;BME280;1937;51.444;6.484;2023-02-18T08:50:42;69045.34;;;10.21;100.00
3844;BME280;1937;51.444;6.484;2023-02-18T08:53:10;69002.03;;;10.37;100.00
3844;BME280;1937;51.444;6.484;2023-02-18T08:55:40;68965.19;;;10.38;100.00
3844;BME280;1937;51.444;6.484;2023-02-18T08:58:09;68943.81;;;10.40;100.00
3844;BME280;1937;51.444;6.484;2023-02-18T09:00:38;68808.38;;;10.30;99.04
3844;BME280;1937;51.444;6.484;2023-02-18T09:03:09;68724.84;;;10.29;99.13
3844;BME280;1937;51.444;6.484;2023-02-18T09:05:40;68750.75;;;10.40;98.28
3844;BME280;1937;51.444;6.484;2023-02-18T09:08:10;68713.16;;;10.30;98.14
3844;BME280;1937;51.444;6.484;2023-02-18T09:10:38;68668.56;;;10.38;97.77
3844;BME280;1937;51.444;6.484;2023-02-18T09:13:07;68585.91;;;10.22;97.36
3844;BME280;1937;51.444;6.484;2023-02-18T09:15:36;68543.72;;;10.25;97.06
3844;BME280;1937;51.444;6.484;2023-02-18T09:18:04;68538.75;;;10.30;96.24
3844;BME280;1937;51.444;6.484;2023-02-18T09:20:32;68497.59;;;10.30;96.47
3844;BME280;1937;51.444;6.484;2023-02-18T09:23:02;68507.34;;;10.23;97.28
3844;BME280;1937;51.444;6.484;2023-02-18T09:25:31;68462.41;;;10.22;97.47
3844;BME280;1937;51.444;6.484;2023-02-18T09:27:59;68497.69;;;10.41;95.69
3844;BME280;1937;51.444;6.484;2023-02-18T09:30:28;68465.75;;;10.51;94.75
3844;BME280;1937;51.444;6.484;2023-02-18T09:32:57;68438.00;;;10.52;95.32
3844;BME280;1937;51.444;6.484;2023-02-18T09:35:26;68436.94;;;10.62;94.67
3844;BME280;1937;51.444;6.484;2023-02-18T09:37:54;68422.22;;;10.67;94.09
3844;BME280;1937;51.444;6.484;2023-02-18T09:40:28;68413.44;;;10.77;92.77
3844;BME280;1937;51.444;6.484;2023-02-18T09:42:59;68391.00;;;10.82;92.89
3844;BME280;1937;51.444;6.484;2023-02-18T09:45:29;68425.16;;;10.94;93.04
3844;BME280;1937;51.444;6.484;2023-02-18T09:47:58;68357.50;;;11.00;92.68
3844;BME280;1937;51.444;6.484;2023-02-18T09:50:30;68359.13;;;10.79;93.28
3844;BME280;1937;51.444;6.484;2023-02-18T09:53:00;68308.13;;;10.68;94.19
3844;BME280;1937;51.444;6.484;2023-02-18T09:55:32;68372.06;;;10.90;94.70
3844;BME280;1937;51.444;6.484;2023-02-18T09:58:04;68386.13;;;10.91;94.63
3844;BME280;1937;51.444;6.484;2023-02-18T10:00:37;68364.34;;;10.90;93.97
3844;BME280;1937;51.444;6.484;2023-02-18T10:03:10;68385.47;;;10.97;94.14
3844;BME280;1937;51.444;6.484;2023-02-18T10:05:43;68319.22;;;10.85;93.36
3844;BME280;1937;51.444;6.484;2023-02-18T10:08:20;68355.16;;;10.98;93.05
3844;BME280;1937;51.444;6.484;2023-02-18T10:10:50;68311.28;;;10.87;93.50
3844;BME280;1937;51.444;6.484;2023-02-18T10:13:21;68284.09;;;10.59;95.65
3844;BME280;1937;51.444;6.484;2023-02-18T10:15:51;68309.38;;;10.45;97.24
3844;BME280;1937;51.444;6.484;2023-02-18T10:18:27;68377.09;;;10.44;98.49
3844;BME280;1937;51.444;6.484;2023-02-18T10:21:00;68372.13;;;10.48;97.62
3844;BME280;1937;51.444;6.484;2023-02-18T10:23:32;68411.03;;;10.57;97.23
3844;BME280;1937;51.444;6.484;2023-02-18T10:26:05;68404.41;;;10.47;96.92
3844;BME280;1937;51.444;6.484;2023-02-18T10:28:37;68405.72;;;10.53;96.85
3844;BME280;1937;51.444;6.484;2023-02-18T10:31:09;68396.50;;;10.43;97.15
3844;BME280;1937;51.444;6.484;2023-02-18T10:33:44;68363.63;;;10.43;97.17
3844;BME280;1937;51.444;6.484;2023-02-18T10:36:25;68365.81;;;10.23;98.96
3844;BME280;1937;51.444;6.484;2023-02-18T10:39:08;68406.53;;;10.27;99.41
3844;BME280;1937;51.444;6.484;2023-02-18T10:41:46;68471.25;;;10.30;100.00
3844;BME280;1937;51.444;6.484;2023-02-18T10:44:22;68475.03;;;10.31;100.00
3844;BME280;1937;51.444;6.484;2023-02-18T10:47:02;68561.38;;;10.23;100.00
3844;BME280;1937;51.444;6.484;2023-02-18T10:49:56;68529.50;;;10.20;100.00
3844;BME280;1937;51.444;6.484;2023-02-18T10:52:28;68636.91;;;10.39;100.00
3844;BME280;1937;51.444;6.484;2023-02-18T10:55:03;68638.13;;;10.34;100.00
3844;BME280;1937;51.444;6.484;2023-02-18T10:57:32;68676.16;;;10.20;100.00
3844;BME280;1937;51.444;6.484;2023-02-18T11:00:10;68754.16;;;10.25;100.00
3844;BME280;1937;51.444;6.484;2023-02-18T11:02:44;68735.34;;;10.20;100.00
3844;BME280;1937;51.444;6.484;2023-02-18T11:05:21;68818.09;;;10.22;100.00
3844;BME280;1937;51.444;6.484;2023-02-18T11:07:52;68815.50;;;10.16;100.00
3844;BME280;1937;51.444;6.484;2023-02-18T11:10:25;68840.28;;;10.06;100.00
3844;BME280;1937;51.444;6.484;2023-02-18T11:12:59;68861.81;;;9.96;100.00
3844;BME280;1937;51.444;6.484;2023-02-18T11:15:30;68967.91;;;10.10;100.00
3844;BME280;1937;51.444;6.484;2023-02-18T11:18:11;69045.91;;;10.15;100.00
3844;BME280;1937;51.444;6.484;2023-02-18T11:20:40;69098.41;;;10.24;100.00
3844;BME280;1937;51.444;6.484;2023-02-18T11:23:16;69095.97;;;10.09;100.00
3844;BME280;1937;51.444;6.484;2023-02-18T11:25:56;69228.66;;;10.21;100.00
3844;BME280;1937;51.444;6.484;2023-02-18T11:28:42;69206.31;;;10.26;100.00
3844;BME280;1937;51.444;6.484;2023-02-18T11:31:23;69173.03;;;10.18;100.00
3844;BME280;1937;51.444;6.484;2023-02-18T11:33:55;69272.91;;;10.09;100.00
3844;BME280;1937;51.444;6.484;2023-02-18T11:36:30;69323.88;;;10.21;100.00
3844;BME280;1937;51.444;6.484;2023-02-18T11:39:02;69373.97;;;10.22;100.00
3844;BME280;1937;51.444;6.484;2023-02-18T11:41:37;69385.47;;;10.23;100.00
3844;BME280;1937;51.444;6.484;2023-02-18T11:44:07;69439.34;;;10.25;100.00
3844;BME280;1937;51.444;6.484;2023-02-18T11:46:56;69427.94;;;10.16;100.00
3844;BME280;1937;51.444;6.484;2023-02-18T11:49:27;69493.75;;;10.21;100.00
3844;BME280;1937;51.444;6.484;2023-02-18T11:52:04;69505.41;;;10.20;100.00
3844;BME280;1937;51.444;6.484;2023-02-18T11:54:33;69616.59;;;10.30;100.00
3844;BME280;1937;51.444;6.484;2023-02-18T11:57:04;69632.91;;;10.19;100.00
3844;BME280;1937;51.444;6.484;2023-02-18T11:59:35;69697.16;;;10.28;100.00
3844;BME280;1937;51.444;6.484;2023-02-18T12:02:20;69751.47;;;10.33;100.00
3844;BME280;1937;51.444;6.484;2023-02-18T12:04:59;69689.53;;;10.19;100.00
3844;BME280;1937;51.444;6.484;2023-02-18T12:07:33;69686.78;;;10.06;100.00
3844;BME280;1937;51.444;6.484;2023-02-18T12:10:13;69882.75;;;10.17;100.00
3844;BME280;1937;51.444;6.484;2023-02-18T12:12:47;69913.66;;;10.09;100.00
3844;BME280;1937;51.444;6.484;2023-02-18T12:15:23;69958.03;;;10.09;100.00
3844;BME280;1937;51.444;6.484;2023-02-18T12:18:08;69985.13;;;10.08;100.00
3844;BME280;1937;51.444;6.484;2023-02-18T12:20:50;70036.72;;;10.15;100.00
3844;BME280;1937;51.444;6.484;2023-02-18T12:23:29;70096.31;;;10.35;100.00
3844;BME280;1937;51.444;6.484;2023-02-18T12:26:18;70109.00;;;10.45;100.00
3844;BME280;1937;51.444;6.484;2023-02-18T12:29:12;70041.78;;;10.41;100.00
3844;BME280;1937;51.444;6.484;2023-02-18T12:31:56;69964.38;;;10.19;100.00
3844;BME280;1937;51.444;6.484;2023-02-18T12:34:41;70166.63;;;10.24;100.00
3844;BME280;1937;51.444;6.484;2023-02-18T12:37:43;70113.94;;;10.23;100.00
3844;BME280;1937;51.444;6.484;2023-02-18T12:40:38;70282.75;;;10.38;100.00
3844;BME280;1937;51.444;6.484;2023-02-18T12:43:12;70331.97;;;10.51;100.00
3844;BME280;1937;51.444;6.484;2023-02-18T12:46:00;70325.78;;;10.48;100.00
3844;BME280;1937;51.444;6.484;2023-02-18T12:48:44;70194.13;;;10.43;100.00
3844;BME280;1937;51.444;6.484;2023-02-18T12:51:26;70217.22;;;10.28;100.00
3844;BME280;1937;51.444;6.484;2023-02-18T12:54:29;70347.16;;;10.46;100.00
3844;BME280;1937;51.444;6.484;2023-02-18T12:57:20;70307.47;;;10.35;100.00
3844;BME280;1937;51.444;6.484;2023-02-18T13:00:06;70370.94;;;10.47;100.00
3844;BME280;1937;51.444;6.484;2023-02-18T13:02:53;70451.81;;;10.50;100.00
3844;BME280;1937;51.444;6.484;2023-02-18T13:05:35;70366.38;;;10.39;100.00
3844;BME280;1937;51.444;6.484;2023-02-18T13:08:21;70317.31;;;10.32;100.00
3844;BME280;1937;51.444;6.484;2023-02-18T13:11:06;70452.72;;;10.38;100.00
3844;BME280;1937;51.444;6.484;2023-02-18T13:13:40;70505.59;;;10.37;100.00
3844;BME280;1937;51.444;6.484;2023-02-18T13:16:14;70483.34;;;10.42;100.00
3844;BME280;1937;51.444;6.484;2023-02-18T13:18:48;70514.25;;;10.50;100.00
3844;BME280;1937;51.444;6.484;2023-02-18T13:21:21;70399.72;;;10.41;100.00
3844;BME280;1937;51.444;6.484;2023-02-18T13:23:54;70488.06;;;10.48;100.00
3844;BME280;1937;51.444;6.484;2023-02-18T13:26:26;70537.31;;;10.61;100.00
3844;BME280;1937;51.444;6.484;2023-02-18T13:29:08;70494.72;;;10.62;100.00
3844;BME280;1937;51.444;6.484;2023-02-18T13:31:49;70579.94;;;10.77;100.00
3844;BME280;1937;51.444;6.484;2023-02-18T13:34:26;70450.16;;;10.72;100.00
3844;BME280;1937;51.444;6.484;2023-02-18T13:37:05;70506.72;;;10.74;100.00
3844;BME280;1937;51.444;6.484;2023-02-18T13:39:37;70595.91;;;10.97;100.00
3844;BME280;1937;51.444;6.484;2023-02-18T13:42:32;70480.50;;;10.97;100.00
3844;BME280;1937;51.444;6.484;2023-02-18T13:45:25;70423.34;;;10.95;100.00
3844;BME280;1937;51.444;6.484;2023-02-18T13:47:58;70369.06;;;10.97;100.00
3844;BME280;1937;51.444;6.484;2023-02-18T13:50:31;70316.13;;;10.98;100.00